Milford, CA

10:59 PM PST on February 23, 2017 (GMT -0800)
MD5697 | | Change Station
Active Advisory: Areal Flood Warning

Elev 4257 ft 40.20 °N, 120.30 °W | Updated 11 minutes ago

Partly Cloudy
Partly Cloudy
20.0 °F
Feels Like 20 °F
N
2.0
Wind Variable Wind from West
Gusts 3.0 mph

Today
High -- | Low -- °F
--% Chance of Precip.
Yesterday
High -- | Low -- °F
Precip. -- in
Pressure 30.07 in
Visibility 10.0 miles
Clouds Few 3000 ft
Overcast 3700 ft
Windchill 20 °F
Dew Point 16 °F
Humidity 86%
Rainfall 0.01 in
Snow Depth Not available.
6:43 AM 5:46 PM
Waning Crescent, 6% visible
METAR KRTS 240635Z AUTO 35006KT 10SM FEW030 OVC037 M08/M10 A3007 RMK AO2
Pressure 30.07 in
Visibility 10.0 miles
Clouds Few 3000 ft
Overcast 3700 ft
Windchill 20 °F
Dew Point 16 °F
Humidity 86%
Rainfall 0.01 in
Snow Depth Not available.
6:43 AM 5:46 PM
Waning Crescent, 6% visible
METAR KRTS 240635Z AUTO 35006KT 10SM FEW030 OVC037 M08/M10 A3007 RMK AO2

Get Your Daily Forecast Email!

Thanks for signing up!

Be on the lookout for a verification email in your inbox.

You'll start receiving the daily forecast at 8 AM.

×

10-Day Weather Forecast

Almanac

Astronomy

Feb. 23, 2017 Rise Set
Actual Time
Civil Twilight
Nautical Twilight
Astronomical Twilight
Moon
Length of Visible Light
Length of Day
Tomorrow will be .
, % of the Moon is Illuminated

Today's Extremes

State Highs State Lows

Community

WunderPhotos

Upload Photos

1,962,540 photos uploaded!

WunderBlog® & News

Nearby

Air Quality

  Air Quality AQ Index Pollutant
Not available.

Snow Depth

Station Depth Elevation

Earthquake Activity

City Distance Mag. Time & Date
Minimum magnitude displayed is 2.5.

Coastal Water Temperatures

Place Temperature

Stations

Nearby Weather Stations

Station Location Temp. Windchill Dew Point Humidity Wind Precip. Elev Updated Type
                   

Watches & Warnings

Areal Flood Warning
Issued: 8:40 AM PST Feb. 22, 2017 – National Weather Service

... A Flood Warning for rain and snowmelt remains in effect until 1130
am PST Sunday for northwestern Lassen County...

Flooding along The Pit river in Modoc County will move downstream
into northwestern Lassen County through the end of the week,
affecting lowlands in Big Valley and along The Pit river to the
Shasta-Lassen County line.

Some locations that will experience flooding include...
Big Valley including Nubieber and Bieber... and Pittville.

Precautionary/preparedness actions...

A Flood Warning means that flooding is imminent or occurring. All
interested parties in the lower elevations near The Pit river should
take necessary precautions and stay alert for the latest information
from emergency officials and the National Weather Service.


Lat... Lon 4100 12125 4097 12122 4099 12119 4107 12116
      4108 12120 4119 12119 4119 12109 4104 12107
      4092 12121 4093 12125 4103 12133 4106 12133
      4106 12132


Ss